Time;durP1;ratioP1;P1;durP2;ratioP2;P2;SDS_P1;SDS_P2;PMS_P1;PMS_P2;Temp;Humidity;BMP_temperature;BMP_pressure;BME280_temperature;BME280_humidity;BME280_pressure;Samples;Min_cycle;Max_cycle;Signal;HPM_P1;HPM_P2
2022/09/08 00:00:40;;;;;;;6.57;2.00;;;;;;;;;;4999053;28;92538;-68
2022/09/08 00:03:09;;;;;;;5.38;2.33;;;;;;;;;;4995819;28;93660;-67
2022/09/08 00:05:38;;;;;;;9.02;2.50;;;;;;;;;;4992776;28;95545;-67
2022/09/08 00:08:04;;;;;;;9.73;2.50;;;;;;;;;;4995578;28;95540;-67
2022/09/08 00:10:31;;;;;;;14.10;3.45;;;;;;;;;;4995265;28;93567;-67
2022/09/08 00:12:58;;;;;;;8.00;2.60;;;;;;;;;;4994781;28;92433;-67
2022/09/08 00:15:24;;;;;;;15.00;2.90;;;;;;;;;;4995970;28;93148;-67
2022/09/08 00:17:51;;;;;;;10.43;2.90;;;;;;;;;;5010652;28;93525;-67
2022/09/08 00:20:18;;;;;;;6.53;3.20;;;;;;;;;;4998778;28;92604;-68
2022/09/08 00:22:44;;;;;;;21.38;4.55;;;;;;;;;;4995830;28;92728;-68
2022/09/08 00:25:10;;;;;;;14.38;4.00;;;;;;;;;;4995474;28;92467;-67
2022/09/08 00:27:36;;;;;;;11.00;3.50;;;;;;;;;;4995859;28;93298;-67
2022/09/08 00:30:03;;;;;;;14.88;4.05;;;;;;;;;;4993379;28;95997;-66
2022/09/08 00:32:30;;;;;;;14.85;3.83;;;;;;;;;;4995506;28;92425;-67
2022/09/08 00:34:58;;;;;;;13.13;4.60;;;;;;;;;;4995388;28;93047;-67
2022/09/08 00:37:26;;;;;;;9.27;4.50;;;;;;;;;;4993890;28;93751;-66
2022/09/08 00:39:52;;;;;;;10.45;4.85;;;;;;;;;;4995310;28;92445;-67
2022/09/08 00:42:18;;;;;;;15.50;4.32;;;;;;;;;;4998330;28;93490;-67
2022/09/08 00:44:49;;;;;;;8.90;4.30;;;;;;;;;;4995718;28;92464;-67
2022/09/08 00:47:29;;;;;;;14.18;4.20;;;;;;;;;;4996594;28;93438;-67
2022/09/08 00:50:09;;;;;;;12.35;3.75;;;;;;;;;;4993366;28;93413;-67
2022/09/08 00:52:41;;;;;;;8.02;3.00;;;;;;;;;;4993767;28;92465;-66
2022/09/08 00:55:08;;;;;;;10.32;3.45;;;;;;;;;;5008642;28;94836;-67
2022/09/08 00:57:35;;;;;;;10.27;3.58;;;;;;;;;;4993782;28;93464;-67
2022/09/08 01:00:03;;;;;;;8.02;3.25;;;;;;;;;;4993812;28;92522;-67
2022/09/08 01:02:30;;;;;;;14.95;3.40;;;;;;;;;;4994812;28;93297;-67
2022/09/08 01:05:08;;;;;;;9.30;3.13;;;;;;;;;;4997965;28;93423;-68
2022/09/08 01:13:56;;;;;;;11.38;3.75;;;;;;;;;;4995471;28;91661;-67
2022/09/08 01:16:22;;;;;;;12.52;3.97;;;;;;;;;;4994948;28;92459;-66
2022/09/08 01:18:48;;;;;;;7.97;3.40;;;;;;;;;;4994558;28;93567;-67
2022/09/08 01:21:27;;;;;;;7.95;3.45;;;;;;;;;;4993459;28;94760;-67
2022/09/08 01:24:08;;;;;;;10.32;3.47;;;;;;;;;;4994794;28;95512;-67
2022/09/08 01:26:46;;;;;;;15.15;3.88;;;;;;;;;;4994487;28;93359;-66
2022/09/08 01:29:14;;;;;;;9.80;3.50;;;;;;;;;;4997586;28;92427;-66
2022/09/08 01:31:42;;;;;;;7.50;3.33;;;;;;;;;;4994505;28;93397;-67
2022/09/08 01:34:08;;;;;;;9.38;3.83;;;;;;;;;;4994716;28;92436;-67
2022/09/08 01:36:35;;;;;;;13.75;4.18;;;;;;;;;;4996198;28;93508;-67
2022/09/08 01:39:01;;;;;;;9.82;3.90;;;;;;;;;;4997313;28;92708;-67
2022/09/08 01:41:27;;;;;;;16.27;4.25;;;;;;;;;;4998061;28;92509;-67
2022/09/08 01:43:54;;;;;;;12.23;3.58;;;;;;;;;;4998082;28;93194;-67
2022/09/08 01:46:20;;;;;;;12.02;3.92;;;;;;;;;;4996453;28;95832;-67
2022/09/08 01:48:46;;;;;;;18.38;4.07;;;;;;;;;;4998375;28;92792;-66
2022/09/08 01:51:13;;;;;;;14.00;4.32;;;;;;;;;;5000882;28;93195;-67
2022/09/08 01:53:39;;;;;;;13.80;4.68;;;;;;;;;;4996811;28;92512;-67
2022/09/08 01:56:05;;;;;;;10.02;4.00;;;;;;;;;;4997754;28;93477;-66
2022/09/08 01:58:32;;;;;;;15.80;4.60;;;;;;;;;;4996613;28;93450;-66
2022/09/08 02:00:58;;;;;;;12.05;4.32;;;;;;;;;;4998216;28;92264;-66
2022/09/08 02:03:25;;;;;;;14.90;3.97;;;;;;;;;;4998387;28;92075;-66
2022/09/08 02:05:52;;;;;;;13.02;4.68;;;;;;;;;;4997581;28;93697;-66
2022/09/08 02:08:18;;;;;;;14.48;4.70;;;;;;;;;;4997714;28;92421;-66
2022/09/08 02:10:52;;;;;;;18.40;4.20;;;;;;;;;;4994497;28;94789;-66
2022/09/08 02:13:18;;;;;;;9.02;3.78;;;;;;;;;;4999285;28;93420;-67
2022/09/08 02:15:44;;;;;;;11.27;4.15;;;;;;;;;;4997848;28;93129;-67
2022/09/08 02:18:11;;;;;;;13.07;4.20;;;;;;;;;;4997205;28;93445;-67
2022/09/08 02:20:37;;;;;;;16.33;4.72;;;;;;;;;;4997662;28;92472;-67
2022/09/08 02:23:03;;;;;;;14.88;4.75;;;;;;;;;;4997652;28;93173;-66
2022/09/08 02:25:29;;;;;;;14.00;4.50;;;;;;;;;;4996839;28;93427;-66
2022/09/08 02:27:56;;;;;;;15.65;4.10;;;;;;;;;;4997828;28;91749;-67
2022/09/08 02:30:23;;;;;;;12.48;4.63;;;;;;;;;;4997624;28;92452;-66
2022/09/08 02:32:49;;;;;;;14.75;4.72;;;;;;;;;;5000183;28;93387;-66
2022/09/08 02:35:16;;;;;;;13.63;4.65;;;;;;;;;;4995796;28;94800;-67
2022/09/08 02:37:42;;;;;;;16.13;4.47;;;;;;;;;;4997099;28;93413;-67
2022/09/08 02:40:09;;;;;;;12.20;5.03;;;;;;;;;;4997250;28;92583;-67
2022/09/08 02:42:36;;;;;;;13.70;4.18;;;;;;;;;;4997055;28;93434;-67
2022/09/08 02:45:02;;;;;;;14.25;4.10;;;;;;;;;;4996031;28;93499;-67
2022/09/08 02:47:31;;;;;;;12.98;4.60;;;;;;;;;;4997454;28;92503;-67
2022/09/08 02:49:57;;;;;;;10.80;4.45;;;;;;;;;;4997099;28;93439;-66
2022/09/08 02:52:23;;;;;;;17.75;4.78;;;;;;;;;;4997102;28;92823;-67
2022/09/08 02:54:50;;;;;;;14.35;4.22;;;;;;;;;;4999573;28;92413;-67
2022/09/08 02:57:16;;;;;;;12.15;4.75;;;;;;;;;;4997068;28;95515;-67
2022/09/08 02:59:42;;;;;;;14.65;4.43;;;;;;;;;;4994026;28;94816;-66
2022/09/08 03:02:08;;;;;;;12.70;4.18;;;;;;;;;;4996848;28;95562;-67
2022/09/08 03:04:35;;;;;;;12.95;4.57;;;;;;;;;;4996802;28;92695;-67
2022/09/08 03:07:01;;;;;;;9.88;4.03;;;;;;;;;;4995172;28;92508;-67
2022/09/08 03:09:27;;;;;;;13.50;4.45;;;;;;;;;;4996782;28;93284;-66
2022/09/08 03:11:54;;;;;;;8.30;4.30;;;;;;;;;;4996360;28;93438;-66
2022/09/08 03:14:21;;;;;;;14.80;4.60;;;;;;;;;;4996745;28;92479;-66
2022/09/08 03:16:47;;;;;;;10.05;5.10;;;;;;;;;;5000141;28;93774;-66
2022/09/08 03:19:13;;;;;;;11.95;4.68;;;;;;;;;;4996810;28;92444;-66
2022/09/08 03:21:40;;;;;;;11.00;4.68;;;;;;;;;;5011453;28;93172;-67
2022/09/08 03:24:06;;;;;;;11.80;4.57;;;;;;;;;;4995242;28;96101;-66
2022/09/08 03:26:32;;;;;;;13.70;4.50;;;;;;;;;;4996557;28;92458;-67
2022/09/08 03:28:58;;;;;;;14.15;4.78;;;;;;;;;;4996609;28;93155;-66
2022/09/08 03:31:24;;;;;;;9.40;4.80;;;;;;;;;;4996102;28;93598;-66
2022/09/08 03:33:51;;;;;;;7.78;4.28;;;;;;;;;;4996380;28;92478;-67
2022/09/08 03:36:17;;;;;;;9.40;5.13;;;;;;;;;;4996281;28;93081;-67
2022/09/08 03:38:44;;;;;;;11.65;5.10;;;;;;;;;;4999138;28;93459;-67
2022/09/08 03:41:12;;;;;;;13.65;4.72;;;;;;;;;;4997038;28;93150;-67
2022/09/08 03:43:43;;;;;;;15.98;4.95;;;;;;;;;;4996411;28;94428;-67
2022/09/08 03:46:09;;;;;;;8.38;4.72;;;;;;;;;;4995795;28;92484;-66
2022/09/08 03:48:36;;;;;;;12.30;5.22;;;;;;;;;;4994555;28;95028;-67
2022/09/08 03:51:09;;;;;;;9.88;5.03;;;;;;;;;;4996080;28;93817;-67
2022/09/08 03:53:35;;;;;;;11.27;4.68;;;;;;;;;;4996093;28;92400;-67
2022/09/08 03:56:04;;;;;;;11.20;5.38;;;;;;;;;;4995713;28;93166;-66
2022/09/08 03:58:30;;;;;;;11.98;5.45;;;;;;;;;;4995189;28;95015;-67
2022/09/08 04:00:56;;;;;;;12.43;5.35;;;;;;;;;;5014474;28;92477;-67
2022/09/08 04:03:23;;;;;;;9.35;5.25;;;;;;;;;;4995589;28;93498;-66
2022/09/08 04:05:49;;;;;;;13.10;6.00;;;;;;;;;;4996184;28;91704;-67
2022/09/08 04:08:15;;;;;;;10.70;6.13;;;;;;;;;;4995842;28;92423;-66
2022/09/08 04:10:42;;;;;;;15.23;5.05;;;;;;;;;;4995606;28;93559;-67
2022/09/08 04:13:08;;;;;;;10.88;4.32;;;;;;;;;;4994347;28;94883;-67
2022/09/08 04:15:37;;;;;;;14.98;4.30;;;;;;;;;;4994446;28;95495;-67
2022/09/08 04:18:04;;;;;;;12.00;5.07;;;;;;;;;;4995434;28;93251;-66
2022/09/08 04:20:30;;;;;;;10.75;4.65;;;;;;;;;;4995998;28;92446;-66
2022/09/08 04:22:57;;;;;;;11.25;4.57;;;;;;;;;;4998552;28;93633;-66
2022/09/08 04:25:23;;;;;;;8.00;4.03;;;;;;;;;;4995698;28;92526;-66
2022/09/08 04:27:50;;;;;;;10.90;4.47;;;;;;;;;;4994203;28;93180;-66
2022/09/08 04:30:16;;;;;;;13.07;4.97;;;;;;;;;;4994119;28;93018;-67
2022/09/08 04:32:42;;;;;;;11.85;4.97;;;;;;;;;;4995384;28;92408;-66
2022/09/08 04:35:08;;;;;;;9.95;4.25;;;;;;;;;;4995462;28;93247;-66
2022/09/08 04:37:35;;;;;;;9.65;4.68;;;;;;;;;;5008895;28;96870;-66
2022/09/08 04:40:03;;;;;;;10.07;4.60;;;;;;;;;;5010859;28;92738;-66
2022/09/08 04:42:29;;;;;;;11.27;4.65;;;;;;;;;;5013304;28;93351;-66
2022/09/08 04:44:55;;;;;;;10.77;4.75;;;;;;;;;;4994773;28;92863;-66
2022/09/08 04:47:22;;;;;;;15.20;4.68;;;;;;;;;;4993869;28;93247;-66
2022/09/08 04:49:48;;;;;;;12.45;5.15;;;;;;;;;;4994887;28;93402;-66
2022/09/08 04:52:14;;;;;;;13.05;4.63;;;;;;;;;;4995122;28;92474;-66
2022/09/08 04:54:41;;;;;;;11.43;4.30;;;;;;;;;;4995635;28;93020;-67
2022/09/08 04:57:07;;;;;;;11.48;4.40;;;;;;;;;;4995027;28;93485;-66
2022/09/08 04:59:33;;;;;;;9.30;4.45;;;;;;;;;;4994866;28;92423;-66
2022/09/08 05:01:59;;;;;;;12.60;4.90;;;;;;;;;;4993601;28;94746;-67
2022/09/08 05:04:26;;;;;;;9.35;4.55;;;;;;;;;;4998139;28;93479;-66
2022/09/08 05:06:52;;;;;;;12.38;5.03;;;;;;;;;;4995409;28;93409;-66
2022/09/08 05:09:18;;;;;;;15.65;5.32;;;;;;;;;;4994792;28;93733;-67
2022/09/08 05:11:44;;;;;;;11.45;5.10;;;;;;;;;;4993741;28;92454;-66
2022/09/08 05:14:11;;;;;;;12.85;5.68;;;;;;;;;;4994231;28;93145;-66
2022/09/08 05:16:37;;;;;;;10.98;5.55;;;;;;;;;;4993526;28;93400;-66
2022/09/08 05:19:04;;;;;;;15.65;5.55;;;;;;;;;;4993772;28;91756;-66
2022/09/08 05:21:33;;;;;;;12.50;5.40;;;;;;;;;;4994606;28;92745;-66
2022/09/08 05:24:00;;;;;;;12.48;4.95;;;;;;;;;;4994409;28;93739;-66
2022/09/08 05:26:27;;;;;;;13.35;5.25;;;;;;;;;;4996575;28;94743;-66
2022/09/08 05:28:53;;;;;;;8.27;5.20;;;;;;;;;;4992807;28;93478;-66
2022/09/08 05:31:22;;;;;;;11.70;5.30;;;;;;;;;;4994387;28;92529;-66
2022/09/08 05:33:48;;;;;;;13.05;5.85;;;;;;;;;;4994511;28;93211;-66
2022/09/08 05:36:16;;;;;;;14.00;5.53;;;;;;;;;;5009434;28;93571;-67
2022/09/08 05:38:44;;;;;;;11.05;5.15;;;;;;;;;;4993064;28;92598;-66
2022/09/08 05:41:11;;;;;;;11.40;4.80;;;;;;;;;;4994135;28;93126;-66
2022/09/08 05:43:37;;;;;;;14.13;5.50;;;;;;;;;;4994891;28;93700;-66
2022/09/08 05:46:04;;;;;;;10.77;5.30;;;;;;;;;;4994617;28;92394;-66
2022/09/08 05:48:30;;;;;;;11.45;5.60;;;;;;;;;;4997248;28;93227;-66
2022/09/08 05:50:57;;;;;;;16.35;5.35;;;;;;;;;;4991461;28;94853;-66
2022/09/08 05:53:23;;;;;;;16.10;5.50;;;;;;;;;;4994261;28;95529;-66
2022/09/08 05:55:59;;;;;;;10.80;5.28;;;;;;;;;;4993269;28;93384;-66
2022/09/08 05:58:26;;;;;;;10.65;5.72;;;;;;;;;;4994097;28;92970;-66
2022/09/08 06:00:54;;;;;;;14.32;5.57;;;;;;;;;;4994351;28;93124;-66
2022/09/08 06:03:20;;;;;;;14.50;6.20;;;;;;;;;;4993902;28;92474;-66
2022/09/08 06:05:47;;;;;;;16.50;5.80;;;;;;;;;;4994161;28;92603;-66
2022/09/08 06:08:13;;;;;;;10.13;5.80;;;;;;;;;;4994206;28;93195;-66
2022/09/08 06:10:39;;;;;;;11.32;6.00;;;;;;;;;;4997431;28;93420;-67
2022/09/08 06:13:05;;;;;;;12.18;6.22;;;;;;;;;;4994331;28;95161;-66
2022/09/08 06:15:32;;;;;;;18.42;5.97;;;;;;;;;;4992497;28;95814;-66
2022/09/08 06:18:01;;;;;;;11.85;5.60;;;;;;;;;;4994139;28;92450;-67
2022/09/08 06:20:28;;;;;;;19.58;6.47;;;;;;;;;;4994126;28;93126;-66
2022/09/08 06:22:54;;;;;;;13.32;6.22;;;;;;;;;;4995749;28;93414;-67
2022/09/08 06:25:20;;;;;;;8.98;5.43;;;;;;;;;;4997380;28;92435;-66
2022/09/08 06:27:56;;;;;;;8.82;5.72;;;;;;;;;;4997478;28;93118;-66
2022/09/08 06:30:22;;;;;;;12.30;6.95;;;;;;;;;;4996998;28;94458;-66
2022/09/08 06:33:12;;;;;;;15.90;6.65;;;;;;;;;;5000536;28;91599;-66
2022/09/08 06:35:38;;;;;;;14.40;6.32;;;;;;;;;;4996951;28;93485;-66
2022/09/08 06:38:07;;;;;;;14.32;7.07;;;;;;;;;;4997153;28;92465;-66
2022/09/08 06:40:39;;;;;;;14.98;6.68;;;;;;;;;;4995604;28;95289;-66
2022/09/08 06:43:23;;;;;;;14.20;7.05;;;;;;;;;;4995818;28;93727;-66
2022/09/08 06:45:51;;;;;;;12.35;6.70;;;;;;;;;;4997315;28;92497;-66
2022/09/08 06:48:26;;;;;;;12.60;6.53;;;;;;;;;;4997072;28;93251;-66
2022/09/08 06:51:08;;;;;;;12.30;6.97;;;;;;;;;;4996799;28;93515;-66
2022/09/08 06:53:37;;;;;;;15.05;7.25;;;;;;;;;;4999953;28;92338;-66
2022/09/08 06:56:12;;;;;;;12.38;6.82;;;;;;;;;;4996534;28;93079;-66
2022/09/08 06:59:16;;;;;;;13.40;6.10;;;;;;;;;;4997160;28;91708;-66
2022/09/08 07:02:06;;;;;;;9.60;5.70;;;;;;;;;;4997001;28;93846;-66
2022/09/08 07:04:38;;;;;;;11.43;5.80;;;;;;;;;;4993913;28;93236;-66
2022/09/08 07:07:07;;;;;;;15.05;6.07;;;;;;;;;;4992047;28;94859;-66
2022/09/08 07:09:42;;;;;;;9.00;5.57;;;;;;;;;;4994636;28;95846;-66
2022/09/08 07:12:20;;;;;;;13.20;6.05;;;;;;;;;;4993940;28;93717;-66
2022/09/08 07:14:53;;;;;;;11.00;6.07;;;;;;;;;;4993986;28;92661;-66
2022/09/08 07:17:29;;;;;;;13.63;5.95;;;;;;;;;;4996926;28;93153;-66
2022/09/08 07:19:56;;;;;;;9.13;5.60;;;;;;;;;;4994132;28;92596;-66
2022/09/08 07:22:31;;;;;;;12.10;5.95;;;;;;;;;;4994622;28;94127;-66
2022/09/08 07:25:21;;;;;;;9.45;5.93;;;;;;;;;;4994878;28;93836;-66
2022/09/08 07:27:52;;;;;;;9.73;6.72;;;;;;;;;;4983608;28;92666;-66
2022/09/08 07:30:18;;;;;;;15.05;7.78;;;;;;;;;;4993833;28;94430;-67
2022/09/08 07:32:47;;;;;;;12.05;7.32;;;;;;;;;;4992272;28;96820;-67
2022/09/08 07:35:48;;;;;;;12.90;8.15;;;;;;;;;;4993880;28;92407;-67
2022/09/08 07:38:18;;;;;;;11.23;7.20;;;;;;;;;;4993843;28;92527;-67
2022/09/08 07:40:45;;;;;;;13.07;8.00;;;;;;;;;;4977956;28;93496;-67
2022/09/08 07:43:13;;;;;;;10.68;7.68;;;;;;;;;;4975216;28;93475;-66
2022/09/08 07:45:48;;;;;;;10.30;8.15;;;;;;;;;;4982510;28;93424;-66
2022/09/08 07:48:32;;;;;;;13.27;8.27;;;;;;;;;;4996444;28;92407;-67
2022/09/08 07:51:03;;;;;;;15.77;8.35;;;;;;;;;;5011770;28;93169;-66
2022/09/08 07:53:32;;;;;;;11.15;7.72;;;;;;;;;;4994513;28;93453;-66
2022/09/08 07:56:10;;;;;;;13.77;7.88;;;;;;;;;;4995772;28;92489;-67
2022/09/08 07:58:36;;;;;;;11.70;7.05;;;;;;;;;;4994484;28;94787;-67
2022/09/08 08:01:12;;;;;;;12.02;7.63;;;;;;;;;;4996290;28;93299;-66
2022/09/08 08:03:57;;;;;;;12.68;7.28;;;;;;;;;;4999302;28;92413;-66
2022/09/08 08:06:23;;;;;;;11.98;6.82;;;;;;;;;;4995412;28;93393;-67
2022/09/08 08:08:58;;;;;;;10.50;6.57;;;;;;;;;;4994755;28;92430;-67
2022/09/08 08:11:36;;;;;;;11.63;7.53;;;;;;;;;;4995681;28;93929;-66
2022/09/08 08:14:07;;;;;;;11.38;7.45;;;;;;;;;;4995798;28;93336;-66
2022/09/08 08:16:33;;;;;;;;;;;;;;;;;;4995612;28;91683;-66
2022/09/08 08:19:14;;;;;;;11.68;7.32;;;;;;;;;;4996660;28;122881;-67
2022/09/08 08:21:44;;;;;;;11.93;8.10;;;;;;;;;;4995228;28;93449;-66
2022/09/08 08:24:10;;;;;;;13.18;8.48;;;;;;;;;;4992937;28;94902;-67
2022/09/08 08:26:36;;;;;;;12.95;8.77;;;;;;;;;;4998557;28;95559;-66
2022/09/08 08:29:29;;;;;;;12.85;8.18;;;;;;;;;;4995648;28;92473;-67
2022/09/08 08:32:14;;;;;;;13.23;8.43;;;;;;;;;;4995602;28;93427;-67
2022/09/08 08:35:07;;;;;;;14.48;8.10;;;;;;;;;;4995458;28;94693;-67
2022/09/08 08:37:36;;;;;;;14.20;8.20;;;;;;;;;;4995532;28;92397;-67
2022/09/08 08:40:22;;;;;;;13.10;8.60;;;;;;;;;;4995718;28;94167;-67
2022/09/08 08:42:59;;;;;;;13.73;8.18;;;;;;;;;;4995778;28;93020;-66
2022/09/08 08:45:44;;;;;;;10.93;7.53;;;;;;;;;;4995179;28;92528;-67
2022/09/08 08:48:27;;;;;;;14.05;7.53;;;;;;;;;;4998192;28;93158;-66
2022/09/08 08:50:58;;;;;;;13.80;8.50;;;;;;;;;;4993416;28;94818;-66
2022/09/08 08:53:43;;;;;;;12.68;7.32;;;;;;;;;;4995214;28;95689;-67
2022/09/08 08:56:33;;;;;;;12.10;8.18;;;;;;;;;;4994862;28;93728;-67
2022/09/08 08:58:59;;;;;;;13.65;8.80;;;;;;;;;;4995677;28;92348;-67
2022/09/08 09:01:43;;;;;;;15.13;8.88;;;;;;;;;;4994909;28;93174;-67
2022/09/08 09:04:12;;;;;;;17.25;9.88;;;;;;;;;;4995040;28;93753;-67
2022/09/08 09:06:38;;;;;;;14.85;10.20;;;;;;;;;;4994996;28;92475;-67
2022/09/08 09:09:43;;;;;;;19.92;11.43;;;;;;;;;;4994940;28;93331;-67
2022/09/08 09:12:27;;;;;;;19.58;12.00;;;;;;;;;;4994778;28;94498;-67
2022/09/08 09:15:00;;;;;;;17.65;12.50;;;;;;;;;;4991784;28;93289;-67
2022/09/08 09:17:59;;;;;;;19.45;13.48;;;;;;;;;;4990263;28;95492;-68
2022/09/08 09:20:44;;;;;;;14.73;11.70;;;;;;;;;;4991653;28;92457;-67
2022/09/08 09:23:28;;;;;;;17.40;12.10;;;;;;;;;;4991420;28;93195;-68
2022/09/08 09:25:57;;;;;;;18.98;12.70;;;;;;;;;;4991677;28;93412;-67
2022/09/08 09:28:42;;;;;;;19.30;12.00;;;;;;;;;;4991633;28;92769;-68
2022/09/08 09:31:14;;;;;;;14.52;10.52;;;;;;;;;;4974848;28;93140;-67
2022/09/08 09:33:51;;;;;;;11.63;9.75;;;;;;;;;;4991298;28;93663;-67
2022/09/08 09:36:17;;;;;;;13.50;10.00;;;;;;;;;;4978936;28;91708;-68
2022/09/08 09:38:52;;;;;;;8.45;7.07;;;;;;;;;;4991003;28;93409;-67
2022/09/08 09:41:37;;;;;;;7.38;5.72;;;;;;;;;;4992051;28;92586;-67
2022/09/08 09:44:03;;;;;;;8.85;5.03;;;;;;;;;;4974260;28;94858;-67
2022/09/08 09:46:36;;;;;;;6.93;4.97;;;;;;;;;;4986647;28;93467;-67
2022/09/08 09:49:21;;;;;;;7.35;4.45;;;;;;;;;;4994489;28;92701;-67
2022/09/08 09:51:53;;;;;;;7.75;4.35;;;;;;;;;;4994501;28;93432;-68
2022/09/08 09:54:27;;;;;;;8.38;3.97;;;;;;;;;;4993927;28;93483;-68
2022/09/08 09:57:02;;;;;;;5.82;3.75;;;;;;;;;;4995187;28;92467;-67
2022/09/08 10:00:09;;;;;;;5.57;3.30;;;;;;;;;;5001133;28;92914;-67
2022/09/08 10:02:50;;;;;;;4.68;3.15;;;;;;;;;;4998300;28;91681;-67
2022/09/08 10:05:35;;;;;;;10.02;3.28;;;;;;;;;;4998396;28;92556;-67
2022/09/08 10:08:30;;;;;;;5.15;2.70;;;;;;;;;;4997509;28;94053;-68
2022/09/08 10:11:18;;;;;;;7.75;2.88;;;;;;;;;;4996060;28;95298;-68
2022/09/08 10:14:07;;;;;;;8.77;2.80;;;;;;;;;;4997795;28;95470;-68
2022/09/08 10:16:33;;;;;;;4.95;2.38;;;;;;;;;;4997855;28;92520;-67
2022/09/08 10:19:17;;;;;;;6.15;2.47;;;;;;;;;;4997780;28;92443;-67
2022/09/08 10:22:01;;;;;;;7.60;2.67;;;;;;;;;;4997685;28;93424;-67
2022/09/08 10:24:46;;;;;;;12.82;3.88;;;;;;;;;;5000878;28;93849;-67
2022/09/08 10:27:31;;;;;;;4.45;2.90;;;;;;;;;;4997705;28;94192;-67
2022/09/08 10:30:08;;;;;;;5.47;2.85;;;;;;;;;;4996665;28;92756;-67
2022/09/08 10:32:57;;;;;;;5.38;2.90;;;;;;;;;;4997327;28;92435;-68
2022/09/08 10:35:39;;;;;;;8.10;3.00;;;;;;;;;;4997469;28;93126;-68
2022/09/08 10:38:24;;;;;;;8.77;3.70;;;;;;;;;;4994194;28;95769;-67
2022/09/08 10:40:56;;;;;;;7.78;3.22;;;;;;;;;;4996148;28;92445;-67
2022/09/08 10:43:38;;;;;;;10.38;3.88;;;;;;;;;;4996043;28;93142;-67
2022/09/08 10:46:16;;;;;;;5.85;3.20;;;;;;;;;;4997489;28;93680;-68
2022/09/08 10:48:45;;;;;;;8.00;3.00;;;;;;;;;;5000701;28;92405;-68
2022/09/08 10:51:20;;;;;;;6.50;2.80;;;;;;;;;;4997403;28;92341;-67
2022/09/08 10:53:46;;;;;;;14.38;3.15;;;;;;;;;;4996927;28;92466;-68
2022/09/08 10:56:26;;;;;;;9.55;3.22;;;;;;;;;;4997154;28;93285;-68
2022/09/08 10:58:56;;;;;;;7.95;2.58;;;;;;;;;;4995728;28;93487;-68
2022/09/08 11:01:25;;;;;;;7.78;3.00;;;;;;;;;;4996924;28;92476;-68
2022/09/08 11:04:10;;;;;;;9.55;2.97;;;;;;;;;;4994645;28;94738;-67
2022/09/08 11:06:48;;;;;;;22.52;4.47;;;;;;;;;;4996616;28;93341;-67
2022/09/08 11:09:17;;;;;;;8.07;3.85;;;;;;;;;;4998719;28;92388;-67
2022/09/08 11:12:02;;;;;;;13.13;4.03;;;;;;;;;;4997041;28;95478;-67
2022/09/08 11:14:32;;;;;;;11.65;4.57;;;;;;;;;;4996654;28;92584;-67
2022/09/08 11:17:17;;;;;;;12.57;4.10;;;;;;;;;;4997135;28;93082;-67
2022/09/08 11:19:46;;;;;;;10.93;4.28;;;;;;;;;;4996575;28;93476;-67
2022/09/08 11:22:31;;;;;;;11.10;4.03;;;;;;;;;;4997275;28;91643;-68
2022/09/08 11:25:20;;;;;;;10.80;4.22;;;;;;;;;;4996732;28;92425;-68
2022/09/08 11:27:58;;;;;;;8.40;3.30;;;;;;;;;;4996263;28;93363;-68
2022/09/08 11:30:43;;;;;;;10.30;3.35;;;;;;;;;;4994926;28;95010;-67
2022/09/08 11:33:12;;;;;;;9.82;3.15;;;;;;;;;;4999126;28;95734;-68
2022/09/08 11:35:50;;;;;;;8.90;2.42;;;;;;;;;;4995436;28;92713;-68
2022/09/08 11:38:31;;;;;;;13.32;3.10;;;;;;;;;;4996570;28;93131;-68
2022/09/08 11:41:01;;;;;;;10.00;2.53;;;;;;;;;;4996146;28;93463;-69
2022/09/08 11:43:30;;;;;;;11.40;2.40;;;;;;;;;;4996815;28;92498;-68
2022/09/08 11:46:15;;;;;;;8.07;2.38;;;;;;;;;;4996390;28;93121;-68
2022/09/08 11:48:49;;;;;;;6.90;2.25;;;;;;;;;;4996777;28;92648;-69
2022/09/08 11:51:25;;;;;;;8.57;2.15;;;;;;;;;;4995010;28;92474;-69
2022/09/08 11:54:16;;;;;;;5.40;2.15;;;;;;;;;;4995749;28;92732;-69
2022/09/08 11:57:04;;;;;;;13.35;2.00;;;;;;;;;;4997532;28;95820;-68
2022/09/08 11:59:56;;;;;;;6.65;2.28;;;;;;;;;;5011278;28;94699;-68
2022/09/08 12:02:47;;;;;;;7.13;2.00;;;;;;;;;;4994278;28;93888;-69
2022/09/08 12:05:23;;;;;;;10.38;2.72;;;;;;;;;;4996113;28;92463;-68
2022/09/08 12:08:15;;;;;;;7.70;1.88;;;;;;;;;;4994572;28;93416;-69
2022/09/08 12:11:00;;;;;;;6.40;1.90;;;;;;;;;;4996011;28;94431;-69
2022/09/08 12:13:38;;;;;;;6.65;2.17;;;;;;;;;;4994710;28;92521;-69
2022/09/08 12:16:05;;;;;;;12.13;2.75;;;;;;;;;;4996796;28;92562;-69
2022/09/08 12:18:41;;;;;;;9.30;2.40;;;;;;;;;;4995634;28;93375;-68
2022/09/08 12:21:07;;;;;;;10.52;2.28;;;;;;;;;;4998643;28;92456;-69
2022/09/08 12:23:39;;;;;;;9.23;2.72;;;;;;;;;;4993839;28;95811;-68
2022/09/08 12:26:08;;;;;;;6.88;1.80;;;;;;;;;;4995688;28;92483;-68
2022/09/08 12:29:01;;;;;;;7.72;2.42;;;;;;;;;;4995695;28;93092;-68
2022/09/08 12:31:35;;;;;;;7.30;2.30;;;;;;;;;;4995755;28;94519;-68
2022/09/08 12:34:19;;;;;;;8.05;2.10;;;;;;;;;;4995444;28;92451;-68
2022/09/08 12:36:49;;;;;;;7.30;1.83;;;;;;;;;;4995564;28;93157;-68
2022/09/08 12:39:18;;;;;;;7.95;1.60;;;;;;;;;;4993915;28;93495;-69
2022/09/08 12:41:55;;;;;;;8.98;2.40;;;;;;;;;;4995982;28;91852;-68
2022/09/08 12:44:25;;;;;;;8.80;2.45;;;;;;;;;;4998099;28;92847;-69
2022/09/08 12:47:05;;;;;;;6.40;1.95;;;;;;;;;;4995607;28;92358;-69
2022/09/08 12:49:31;;;;;;;8.85;2.42;;;;;;;;;;4992250;28;94879;-66
2022/09/08 12:52:00;;;;;;;8.20;2.22;;;;;;;;;;4995311;28;93758;-66
2022/09/08 12:54:41;;;;;;;12.73;2.83;;;;;;;;;;4994539;28;92911;-66
2022/09/08 12:57:13;;;;;;;8.27;2.05;;;;;;;;;;4995332;28;93148;-67
2022/09/08 12:59:58;;;;;;;8.90;2.03;;;;;;;;;;4994980;28;93460;-66
2022/09/08 13:02:29;;;;;;;8.23;2.33;;;;;;;;;;4994088;28;92490;-69
2022/09/08 13:05:13;;;;;;;17.05;2.45;;;;;;;;;;4994627;28;93090;-68
2022/09/08 13:07:39;;;;;;;9.45;2.58;;;;;;;;;;4998685;28;94092;-69
2022/09/08 13:10:06;;;;;;;11.25;2.22;;;;;;;;;;4993931;28;92606;-68
2022/09/08 13:12:39;;;;;;;9.32;2.10;;;;;;;;;;4993586;28;93851;-69
2022/09/08 13:15:05;;;;;;;10.23;2.35;;;;;;;;;;4994093;28;94771;-68
2022/09/08 13:17:48;;;;;;;7.95;2.08;;;;;;;;;;4993418;28;95545;-69
2022/09/08 13:20:50;;;;;;;8.23;1.80;;;;;;;;;;4995332;28;94054;-68
2022/09/08 13:23:35;;;;;;;10.70;2.30;;;;;;;;;;4992820;28;92439;-68
2022/09/08 13:26:19;;;;;;;7.90;1.73;;;;;;;;;;4992151;28;93749;-68
2022/09/08 13:28:56;;;;;;;9.20;1.90;;;;;;;;;;4995316;28;92797;-68
2022/09/08 13:31:49;;;;;;;7.78;2.05;;;;;;;;;;4991706;28;92729;-68
2022/09/08 13:34:19;;;;;;;9.55;1.55;;;;;;;;;;4992120;28;92816;-68
2022/09/08 13:36:57;;;;;;;17.73;2.28;;;;;;;;;;4991969;28;92548;-68
2022/09/08 13:39:35;;;;;;;9.10;2.20;;;;;;;;;;4992017;28;93153;-68
2022/09/08 13:42:10;;;;;;;7.03;1.70;;;;;;;;;;4973864;28;95848;-68
2022/09/08 13:44:52;;;;;;;10.07;1.70;;;;;;;;;;4991419;28;92602;-68
2022/09/08 13:47:24;;;;;;;9.85;2.17;;;;;;;;;;4992199;28;93419;-68
2022/09/08 13:49:58;;;;;;;7.82;1.90;;;;;;;;;;4991587;28;93524;-68
2022/09/08 13:52:43;;;;;;;11.55;2.30;;;;;;;;;;4995255;28;92455;-68
2022/09/08 13:55:33;;;;;;;10.00;1.88;;;;;;;;;;4991224;28;93730;-68
2022/09/08 13:58:02;;;;;;;8.35;2.08;;;;;;;;;;4978513;28;92527;-68
2022/09/08 14:00:28;;;;;;;8.70;1.70;;;;;;;;;;4973699;28;93129;-68
2022/09/08 14:02:54;;;;;;;9.77;2.00;;;;;;;;;;4974606;28;93433;-68
2022/09/08 14:05:28;;;;;;;13.85;2.50;;;;;;;;;;4972994;28;92487;-68
2022/09/08 14:08:03;;;;;;;12.27;1.83;;;;;;;;;;4973098;28;95040;-68
2022/09/08 14:10:41;;;;;;;11.93;2.10;;;;;;;;;;4974466;28;93436;-68
2022/09/08 14:13:12;;;;;;;9.50;2.28;;;;;;;;;;4974761;28;92389;-68
2022/09/08 14:15:44;;;;;;;6.10;2.00;;;;;;;;;;4987533;28;93185;-68
2022/09/08 14:18:22;;;;;;;5.55;1.58;;;;;;;;;;4994314;28;92378;-69
2022/09/08 14:21:05;;;;;;;14.27;1.95;;;;;;;;;;4993513;28;93032;-68
2022/09/08 14:23:45;;;;;;;8.43;1.67;;;;;;;;;;4994137;28;93409;-68
2022/09/08 14:26:22;;;;;;;6.85;1.75;;;;;;;;;;4993245;28;92470;-68
2022/09/08 14:29:00;;;;;;;6.72;1.65;;;;;;;;;;4994050;28;92724;-68
2022/09/08 14:31:26;;;;;;;8.02;1.88;;;;;;;;;;4993688;28;93797;-68
2022/09/08 14:33:54;;;;;;;5.30;2.03;;;;;;;;;;4992378;28;94730;-68
2022/09/08 14:36:38;;;;;;;7.07;1.58;;;;;;;;;;4992691;28;95777;-68
2022/09/08 14:39:11;;;;;;;5.30;1.65;;;;;;;;;;4996812;28;93515;-69
2022/09/08 14:41:45;;;;;;;9.93;1.73;;;;;;;;;;4993934;28;93095;-68
2022/09/08 14:44:17;;;;;;;8.23;1.88;;;;;;;;;;4996148;28;93358;-69
2022/09/08 14:46:57;;;;;;;9.60;2.00;;;;;;;;;;4997812;28;92563;-69
2022/09/08 14:49:29;;;;;;;5.68;1.83;;;;;;;;;;4997156;28;93149;-68
2022/09/08 14:51:56;;;;;;;10.68;1.67;;;;;;;;;;4997523;28;92788;-68
2022/09/08 14:54:40;;;;;;;10.65;2.35;;;;;;;;;;4996778;28;92605;-68
2022/09/08 14:57:16;;;;;;;5.68;1.30;;;;;;;;;;4997234;28;93167;-68
2022/09/08 14:59:51;;;;;;;3.92;1.55;;;;;;;;;;4995078;28;96338;-69
2022/09/08 15:02:17;;;;;;;11.60;1.70;;;;;;;;;;4999414;28;92431;-68
2022/09/08 15:04:45;;;;;;;5.78;1.58;;;;;;;;;;4997221;28;93729;-68
2022/09/08 15:07:37;;;;;;;5.72;1.52;;;;;;;;;;4996995;28;92479;-69
2022/09/08 15:10:16;;;;;;;6.00;1.95;;;;;;;;;;4993500;28;93167;-68
2022/09/08 15:13:01;;;;;;;5.35;1.52;;;;;;;;;;4996609;28;93767;-68
2022/09/08 15:15:32;;;;;;;9.65;2.10;;;;;;;;;;4995754;28;92500;-68